createdAt,value
2019-05-02T00:01:58.301Z,93.80
2019-05-02T00:04:27.096Z,93.90
2019-05-02T00:07:06.079Z,94.30
2019-05-02T00:09:36.734Z,94.20
2019-05-02T00:12:09.807Z,94.30
2019-05-02T00:14:38.786Z,94.20
2019-05-02T00:17:08.791Z,94.10
2019-05-02T00:19:38.232Z,94.20
2019-05-02T00:22:26.137Z,94.10
2019-05-02T00:24:54.738Z,94.30
2019-05-02T00:27:23.367Z,94.40
2019-05-02T00:29:53.889Z,94.50
2019-05-02T00:32:23.546Z,94.50
2019-05-02T00:34:52.207Z,94.70
2019-05-02T00:37:24.637Z,94.70
2019-05-02T00:39:50.969Z,94.70
2019-05-02T00:42:22.521Z,94.70
2019-05-02T00:44:49.723Z,94.40
2019-05-02T00:47:20.442Z,94.40
2019-05-02T00:49:48.992Z,93.80
2019-05-02T00:52:17.536Z,93.60
2019-05-02T00:54:46.097Z,93.30
2019-05-02T00:57:14.970Z,92.70
2019-05-02T00:59:44.844Z,91.50
2019-05-02T01:02:20.994Z,91.30
2019-05-02T01:04:50.893Z,91.00
2019-05-02T01:07:20.451Z,89.50
2019-05-02T01:09:49.878Z,87.80
2019-05-02T01:12:26.202Z,86.10
2019-05-02T01:14:48.682Z,85.90
2019-05-02T01:17:17.320Z,86.10
2019-05-02T01:19:47.174Z,85.80
2019-05-02T01:22:17.283Z,86.10
2019-05-02T01:24:45.974Z,85.90
2019-05-02T01:27:24.902Z,85.70
2019-05-02T01:30:01.502Z,86.10
2019-05-02T01:32:30.255Z,86.40
2019-05-02T01:35:04.521Z,86.30
2019-05-02T01:37:54.512Z,86.30
2019-05-02T01:40:21.366Z,86.30
2019-05-02T01:42:51.091Z,86.30
2019-05-02T01:45:19.886Z,86.40
2019-05-02T01:47:48.445Z,86.20
2019-05-02T01:50:17.008Z,85.80
2019-05-02T01:52:45.554Z,85.80
2019-05-02T01:55:16.957Z,85.20
2019-05-02T01:57:44.769Z,85.00
2019-05-02T02:00:14.894Z,84.40
2019-05-02T02:02:43.445Z,84.00
2019-05-02T02:05:12.442Z,83.90
2019-05-02T02:07:41.018Z,83.60
2019-05-02T02:10:09.613Z,83.30
2019-05-02T02:12:41.222Z,83.30
2019-05-02T02:15:09.229Z,83.20
2019-05-02T02:17:37.814Z,83.10
2019-05-02T02:20:09.850Z,83.00
2019-05-02T02:22:53.210Z,82.70
2019-05-02T02:25:37.524Z,82.40
2019-05-02T02:28:06.875Z,81.40
2019-05-02T02:30:35.491Z,80.90
2019-05-02T02:33:07.815Z,80.80
2019-05-02T02:35:34.673Z,80.50
2019-05-02T02:38:03.307Z,80.40
2019-05-02T02:40:33.600Z,80.30
2019-05-02T02:43:12.444Z,80.40
2019-05-02T02:48:20.864Z,80.90
2019-05-02T02:50:49.597Z,80.30
2019-05-02T02:53:30.115Z,80.20
2019-05-02T02:56:04.337Z,79.70
2019-05-02T02:58:44.089Z,79.30
2019-05-02T03:01:05.191Z,79.20
2019-05-02T03:03:35.445Z,79.20
2019-05-02T03:06:07.528Z,79.00
2019-05-02T03:08:44.556Z,79.20
2019-05-02T03:11:05.667Z,78.80
2019-05-02T03:13:52.361Z,78.70
2019-05-02T03:16:16.440Z,78.90
2019-05-02T03:18:45.057Z,79.00
2019-05-02T03:21:20.416Z,79.10
2019-05-02T03:23:44.790Z,78.80
2019-05-02T03:26:15.745Z,78.80
2019-05-02T03:28:43.921Z,79.00
2019-05-02T03:31:23.601Z,79.30
2019-05-02T03:33:54.214Z,79.20
2019-05-02T03:36:28.550Z,79.30
2019-05-02T03:38:44.089Z,78.90
2019-05-02T03:41:20.009Z,79.30
2019-05-02T03:43:43.257Z,79.00
2019-05-02T03:46:13.749Z,78.80
2019-05-02T03:48:41.943Z,78.20
2019-05-02T03:51:19.653Z,77.50
2019-05-02T03:53:41.541Z,76.40
2019-05-02T03:56:11.465Z,76.20
2019-05-02T03:58:40.416Z,75.60
2019-05-02T04:01:09.635Z,75.50
2019-05-02T04:03:40.798Z,74.10
2019-05-02T04:06:14.111Z,73.60
2019-05-02T04:08:41.418Z,72.90
2019-05-02T04:11:22.029Z,72.10
2019-05-02T04:13:52.899Z,71.70
2019-05-02T04:16:22.726Z,71.30
2019-05-02T04:18:56.110Z,71.00
2019-05-02T04:21:26.070Z,70.00
2019-05-02T04:23:54.038Z,70.20
2019-05-02T04:26:22.608Z,69.80
2019-05-02T04:28:52.110Z,69.50
2019-05-02T04:31:24.599Z,69.30
2019-05-02T04:33:51.722Z,69.40
2019-05-02T04:36:20.299Z,69.40
2019-05-02T04:38:52.522Z,69.20
2019-05-02T04:41:28.762Z,69.40
2019-05-02T04:43:55.928Z,69.30
2019-05-02T04:46:27.085Z,69.70
2019-05-02T04:48:52.863Z,70.30
2019-05-02T04:51:20.835Z,70.90
2019-05-02T04:53:50.116Z,72.20
2019-05-02T04:56:19.229Z,72.10
2019-05-02T04:58:49.551Z,72.50
2019-05-02T05:01:21.057Z,72.60
2019-05-02T05:03:57.380Z,72.30
2019-05-02T05:06:19.152Z,73.10
2019-05-02T05:08:48.269Z,73.10
2019-05-02T05:11:20.745Z,73.00
2019-05-02T05:13:47.937Z,72.90
2019-05-02T05:16:18.477Z,72.20
2019-05-02T05:18:49.389Z,71.80
2019-05-02T05:21:17.864Z,71.10
2019-05-02T05:23:51.824Z,71.00
2019-05-02T05:26:19.526Z,70.90
2019-05-02T05:28:48.070Z,70.70
2019-05-02T05:31:23.804Z,70.70
2019-05-02T05:33:47.881Z,73.40
2019-05-02T05:36:19.769Z,70.60
2019-05-02T05:38:47.826Z,70.80
2019-05-02T05:41:22.734Z,71.30
2019-05-02T05:44:01.759Z,70.90
2019-05-02T05:46:33.281Z,71.40
2019-05-02T05:49:03.006Z,72.00
2019-05-02T05:51:31.563Z,71.80
2019-05-02T05:54:03.097Z,72.70
2019-05-02T05:56:32.484Z,73.30
2019-05-02T05:59:00.524Z,73.40
2019-05-02T06:01:34.477Z,73.60
2019-05-02T06:03:59.309Z,73.80
2019-05-02T06:06:27.858Z,73.70
2019-05-02T06:08:56.455Z,73.40
2019-05-02T06:11:25.006Z,73.20
2019-05-02T06:13:53.633Z,73.50
2019-05-02T06:16:22.199Z,73.70
2019-05-02T06:18:50.818Z,73.80
2019-05-02T06:21:19.442Z,74.30
2019-05-02T06:23:48.022Z,73.60
2019-05-02T06:26:16.585Z,74.10
2019-05-02T06:28:45.138Z,73.60
2019-05-02T06:31:15.463Z,72.60
2019-05-02T06:33:43.901Z,72.40
2019-05-02T06:36:12.454Z,72.10
2019-05-02T06:38:41.104Z,71.90
2019-05-02T06:41:09.670Z,71.10
2019-05-02T06:43:41.099Z,70.90
2019-05-02T06:46:16.101Z,71.00
2019-05-02T06:48:38.714Z,70.50
2019-05-02T06:51:10.994Z,70.30
2019-05-02T06:53:41.417Z,71.00
2019-05-02T06:56:07.949Z,71.40
2019-05-02T06:58:42.095Z,70.50
2019-05-02T07:01:08.546Z,70.70
2019-05-02T07:03:41.463Z,71.20
2019-05-02T07:06:07.781Z,71.20
2019-05-02T07:08:36.593Z,71.40
2019-05-02T07:11:06.572Z,71.50
2019-05-02T07:13:36.194Z,70.90
2019-05-02T07:16:16.252Z,71.10
2019-05-02T07:18:47.656Z,71.40
2019-05-02T07:21:17.794Z,70.30
2019-05-02T07:23:48.547Z,70.20
2019-05-02T07:26:20.883Z,70.20
2019-05-02T07:28:47.466Z,70.60
2019-05-02T07:31:16.675Z,71.00
2019-05-02T07:33:45.304Z,70.40
2019-05-02T07:36:13.861Z,72.20
2019-05-02T07:38:42.441Z,71.30
2019-05-02T07:41:11.526Z,74.10
2019-05-02T07:43:40.095Z,76.10
2019-05-02T07:46:08.664Z,76.10
2019-05-02T07:48:37.218Z,75.40
2019-05-02T07:51:05.836Z,74.10
2019-05-02T07:53:34.511Z,73.50
2019-05-02T07:56:03.134Z,74.90
2019-05-02T07:58:31.674Z,77.60
2019-05-02T08:01:00.264Z,79.20
2019-05-02T08:03:29.337Z,78.90
2019-05-02T08:05:59.947Z,79.10
2019-05-02T08:08:29.858Z,80.60
2019-05-02T08:11:01.859Z,80.90
2019-05-02T08:13:31.395Z,81.30
2019-05-02T08:15:59.442Z,82.50
2019-05-02T08:18:30.244Z,80.60
2019-05-02T08:20:58.660Z,79.70
2019-05-02T08:23:27.855Z,78.50
2019-05-02T08:25:56.974Z,78.10
2019-05-02T08:28:27.189Z,77.20
2019-05-02T08:30:57.447Z,77.90
2019-05-02T08:33:29.248Z,79.10
2019-05-02T08:35:56.349Z,76.40
2019-05-02T08:38:24.941Z,75.80
2019-05-02T08:40:53.681Z,74.60
2019-05-02T08:43:22.306Z,73.20
2019-05-02T08:45:51.017Z,74.20
2019-05-02T08:48:22.481Z,72.70
2019-05-02T08:50:49.843Z,72.10
2019-05-02T08:53:19.854Z,72.40
2019-05-02T08:55:48.614Z,70.70
2019-05-02T08:58:17.208Z,68.70
2019-05-02T09:00:47.408Z,68.00
2019-05-02T09:03:15.994Z,67.70
2019-05-02T09:05:45.991Z,66.80
2019-05-02T09:08:16.651Z,65.20
2019-05-02T09:10:45.740Z,65.40
2019-05-02T09:13:17.917Z,63.90
2019-05-02T09:15:49.620Z,63.70
2019-05-02T09:18:14.835Z,63.10
2019-05-02T09:20:47.085Z,60.20
2019-05-02T09:23:13.582Z,60.00
2019-05-02T09:25:43.014Z,59.00
2019-05-02T09:28:12.529Z,58.50
2019-05-02T09:30:41.918Z,57.80
2019-05-02T09:33:11.712Z,57.30
2019-05-02T09:35:42.167Z,57.80
2019-05-02T09:38:12.483Z,55.80
2019-05-02T09:40:42.606Z,55.00
2019-05-02T09:43:12.233Z,56.30
2019-05-02T09:45:41.812Z,54.10
2019-05-02T09:48:12.550Z,53.70
2019-05-02T09:50:42.215Z,53.50
2019-05-02T09:53:13.174Z,54.60
2019-05-02T09:55:49.133Z,54.00
2019-05-02T09:58:19.511Z,52.10
2019-05-02T10:00:52.592Z,52.30
2019-05-02T10:03:22.575Z,53.80
2019-05-02T10:05:52.374Z,54.50
2019-05-02T10:08:22.987Z,55.70
2019-05-02T10:10:52.425Z,56.90
2019-05-02T10:13:22.846Z,54.50
2019-05-02T10:15:52.788Z,51.60
2019-05-02T10:18:28.625Z,50.90
2019-05-02T10:20:52.494Z,49.80
2019-05-02T10:23:23.416Z,49.10
2019-05-02T10:25:52.309Z,48.30
2019-05-02T10:28:22.812Z,46.00
2019-05-02T10:30:52.565Z,45.40
2019-05-02T10:33:22.554Z,46.20
2019-05-02T10:35:52.518Z,46.60
2019-05-02T10:38:22.784Z,44.60
2019-05-02T10:40:54.167Z,44.10
2019-05-02T10:43:22.246Z,44.40
2019-05-02T10:45:56.584Z,44.90
2019-05-02T10:48:28.449Z,43.00
2019-05-02T10:51:13.407Z,43.20
2019-05-02T10:53:42.496Z,43.00
2019-05-02T10:56:11.772Z,39.20
2019-05-02T10:58:42.553Z,39.20
2019-05-02T11:01:13.290Z,45.20
2019-05-02T11:03:52.386Z,49.60
2019-05-02T11:06:22.240Z,48.00
2019-05-02T11:08:52.397Z,46.90
2019-05-02T11:11:22.107Z,45.70
2019-05-02T11:14:00.708Z,44.50
2019-05-02T11:16:38.406Z,45.40
2019-05-02T11:19:13.120Z,46.20
2019-05-02T11:21:53.527Z,45.90
2019-05-02T11:24:14.215Z,45.90
2019-05-02T11:26:42.944Z,45.50
2019-05-02T11:29:12.131Z,45.80
2019-05-02T11:31:42.754Z,43.40
2019-05-02T11:34:12.458Z,43.60
2019-05-02T11:36:42.032Z,45.20
2019-05-02T11:39:20.437Z,44.70
2019-05-02T11:41:42.213Z,45.10
2019-05-02T11:44:12.140Z,43.70
2019-05-02T11:46:46.760Z,41.10
2019-05-02T11:49:12.422Z,40.10
2019-05-02T11:51:42.141Z,40.10
2019-05-02T11:54:12.900Z,40.20
2019-05-02T11:56:49.045Z,39.80
2019-05-02T11:59:14.770Z,37.10
2019-05-02T12:01:56.235Z,38.50
2019-05-02T12:04:16.876Z,38.30
2019-05-02T12:06:44.066Z,37.50
2019-05-02T12:09:13.442Z,35.60
2019-05-02T12:11:41.965Z,34.90
2019-05-02T12:14:12.349Z,35.20
2019-05-02T12:16:43.056Z,34.10
2019-05-02T12:19:12.639Z,34.30
2019-05-02T12:21:43.006Z,34.00
2019-05-02T12:24:12.684Z,34.40
2019-05-02T12:26:42.001Z,34.40
2019-05-02T12:29:12.193Z,31.40
2019-05-02T12:31:42.667Z,32.60
2019-05-02T12:34:12.019Z,34.80
2019-05-02T12:36:42.730Z,37.80
2019-05-02T12:39:12.631Z,36.70
2019-05-02T12:41:42.276Z,37.30
2019-05-02T12:44:11.762Z,37.10
2019-05-02T12:46:42.169Z,35.10
2019-05-02T12:49:22.642Z,35.60
2019-05-02T12:51:42.905Z,37.90
2019-05-02T12:54:12.387Z,38.50
2019-05-02T12:56:41.845Z,37.20
2019-05-02T12:59:11.853Z,36.70
2019-05-02T13:01:42.169Z,36.00
2019-05-02T13:04:12.826Z,36.40
2019-05-02T13:06:42.163Z,38.30
2019-05-02T13:09:12.999Z,40.10
2019-05-02T13:11:45.919Z,39.40
2019-05-02T13:14:19.642Z,38.30
2019-05-02T13:16:48.096Z,38.30
2019-05-02T13:19:17.191Z,37.50
2019-05-02T13:21:59.459Z,37.20
2019-05-02T13:24:29.480Z,37.70
2019-05-02T13:26:59.720Z,36.10
2019-05-02T13:29:32.021Z,37.10
2019-05-02T13:32:08.636Z,35.60
2019-05-02T13:34:54.151Z,32.70
2019-05-02T13:37:22.943Z,33.20
2019-05-02T13:39:53.285Z,33.70
2019-05-02T13:42:22.021Z,33.30
2019-05-02T13:44:53.349Z,31.70
2019-05-02T13:47:24.510Z,34.20
2019-05-02T13:49:56.944Z,35.30
2019-05-02T13:52:23.424Z,36.40
2019-05-02T13:54:53.650Z,37.20
2019-05-02T13:57:22.660Z,39.00
2019-05-02T13:59:52.550Z,41.20
2019-05-02T14:02:33.730Z,42.30
2019-05-02T14:05:02.447Z,40.40
2019-05-02T14:07:32.620Z,41.30
2019-05-02T14:10:04.330Z,41.00
2019-05-02T14:12:49.339Z,40.00
2019-05-02T14:15:21.946Z,41.90
2019-05-02T14:17:52.358Z,42.00
2019-05-02T14:20:22.415Z,43.00
2019-05-02T14:22:52.736Z,44.00
2019-05-02T14:25:22.419Z,44.60
2019-05-02T14:27:55.322Z,45.70
2019-05-02T14:30:36.190Z,45.80
2019-05-02T14:32:54.324Z,46.10
2019-05-02T14:35:28.345Z,44.90
2019-05-02T14:38:13.565Z,43.70
2019-05-02T14:40:52.037Z,43.90
2019-05-02T14:43:44.535Z,41.20
2019-05-02T14:46:08.865Z,39.80
2019-05-02T14:48:45.039Z,39.60
2019-05-02T14:51:11.990Z,38.60
2019-05-02T14:53:42.958Z,38.40
2019-05-02T14:56:12.927Z,41.90
2019-05-02T14:58:42.704Z,41.70
2019-05-02T15:01:16.958Z,42.00
2019-05-02T15:03:43.065Z,43.30
2019-05-02T15:06:11.804Z,44.30
2019-05-02T15:08:43.515Z,43.20
2019-05-02T15:11:12.555Z,43.90
2019-05-02T15:13:41.745Z,45.60
2019-05-02T15:16:17.680Z,45.30
2019-05-02T15:18:42.403Z,45.80
2019-05-02T15:21:16.350Z,47.70
2019-05-02T15:23:43.603Z,49.10
2019-05-02T15:26:14.045Z,49.20
2019-05-02T15:28:42.434Z,49.90
2019-05-02T15:31:19.085Z,51.10
2019-05-02T15:33:51.822Z,51.40
2019-05-02T15:36:22.063Z,50.90
2019-05-02T15:38:52.635Z,52.00
2019-05-02T15:41:21.892Z,52.70
2019-05-02T15:43:52.406Z,54.40
2019-05-02T15:46:25.544Z,54.60
2019-05-02T15:48:51.969Z,54.80
2019-05-02T15:51:22.969Z,55.40
2019-05-02T15:54:04.991Z,56.60
2019-05-02T15:56:24.404Z,55.50
2019-05-02T15:58:53.563Z,54.90
2019-05-02T16:01:26.600Z,54.90
2019-05-02T16:03:56.782Z,55.70
2019-05-02T16:06:30.784Z,56.10
2019-05-02T16:08:55.714Z,54.70
2019-05-02T16:11:24.687Z,55.60
2019-05-02T16:13:55.903Z,54.60
2019-05-02T16:16:23.530Z,54.30
2019-05-02T16:18:52.536Z,54.10
2019-05-02T16:21:28.907Z,54.30
2019-05-02T16:24:14.721Z,56.30
2019-05-02T16:26:42.735Z,58.20
2019-05-02T16:29:19.463Z,57.90
2019-05-02T16:31:45.052Z,57.60
2019-05-02T16:34:15.527Z,57.70
2019-05-02T16:36:44.158Z,58.10
2019-05-02T16:39:13.658Z,57.40
2019-05-02T16:41:49.307Z,55.70
2019-05-02T16:44:13.290Z,51.20
2019-05-02T16:46:43.814Z,50.30
2019-05-02T16:49:15.625Z,48.50
2019-05-02T16:51:43.158Z,47.90
2019-05-02T16:54:12.712Z,48.90
2019-05-02T16:56:45.705Z,48.80
2019-05-02T16:59:12.618Z,48.60
2019-05-02T17:01:42.511Z,50.00
2019-05-02T17:04:12.904Z,51.00
2019-05-02T17:06:42.615Z,50.50
2019-05-02T17:09:21.694Z,51.40
2019-05-02T17:11:52.628Z,51.40
2019-05-02T17:14:22.072Z,51.50
2019-05-02T17:16:52.412Z,47.40
2019-05-02T17:19:21.588Z,40.80
2019-05-02T17:21:53.824Z,39.90
2019-05-02T17:24:22.602Z,38.80
2019-05-02T17:26:51.900Z,42.60
2019-05-02T17:29:21.390Z,45.20
2019-05-02T17:31:55.354Z,47.20
2019-05-02T17:34:24.480Z,48.90
2019-05-02T17:36:51.918Z,50.70
2019-05-02T17:39:22.301Z,51.20
2019-05-02T17:41:52.393Z,51.30
2019-05-02T17:44:24.470Z,51.70
2019-05-02T17:46:58.348Z,52.10
2019-05-02T17:49:23.614Z,52.40
2019-05-02T17:52:11.344Z,52.70
2019-05-02T17:54:42.231Z,52.30
2019-05-02T17:57:11.853Z,52.60
2019-05-02T17:59:42.577Z,53.00
2019-05-02T18:02:21.721Z,51.90
2019-05-02T18:04:55.703Z,52.40
2019-05-02T18:07:25.294Z,52.00
2019-05-02T18:09:52.723Z,52.20
2019-05-02T18:12:23.033Z,52.00
2019-05-02T18:14:59.124Z,52.20
2019-05-02T18:17:22.042Z,52.40
2019-05-02T18:19:52.092Z,52.50
2019-05-02T18:22:24.187Z,52.70
2019-05-02T18:24:52.648Z,53.10
2019-05-02T18:27:22.173Z,52.80
2019-05-02T18:29:51.697Z,53.30
2019-05-02T18:32:24.455Z,53.30
2019-05-02T18:34:51.969Z,53.20
2019-05-02T18:37:21.875Z,53.10
2019-05-02T18:39:55.268Z,52.80
2019-05-02T18:42:22.068Z,53.10
2019-05-02T18:44:53.155Z,51.70
2019-05-02T18:47:24.502Z,52.10
2019-05-02T18:49:53.813Z,53.80
2019-05-02T18:52:23.850Z,53.60
2019-05-02T18:54:52.515Z,54.30
2019-05-02T18:57:24.455Z,54.90
2019-05-02T18:59:51.983Z,55.60
2019-05-02T19:02:21.646Z,56.40
2019-05-02T19:04:51.621Z,57.00
2019-05-02T19:07:30.881Z,56.00
2019-05-02T19:09:51.901Z,56.30
2019-05-02T19:12:25.386Z,56.70
2019-05-02T19:14:52.793Z,56.20
2019-05-02T19:17:21.934Z,57.00
2019-05-02T19:19:52.593Z,57.10
2019-05-02T19:22:22.437Z,56.60
2019-05-02T19:24:52.371Z,56.60
2019-05-02T19:27:38.898Z,56.20
2019-05-02T19:30:08.646Z,56.10
2019-05-02T19:32:37.271Z,56.40
2019-05-02T19:35:07.125Z,56.50
2019-05-02T19:37:43.914Z,56.50
2019-05-02T19:40:09.780Z,57.00
2019-05-02T19:42:39.248Z,57.60
2019-05-02T19:45:11.579Z,57.70
2019-05-02T19:47:38.207Z,57.70
2019-05-02T19:50:26.381Z,57.60
2019-05-02T19:53:01.175Z,57.80
2019-05-02T19:55:24.182Z,58.20
2019-05-02T19:57:56.691Z,57.00
2019-05-02T20:00:23.129Z,56.60
2019-05-02T20:02:52.248Z,56.10
2019-05-02T20:05:25.529Z,55.40
2019-05-02T20:07:51.964Z,55.20
2019-05-02T20:10:22.730Z,54.90
2019-05-02T20:12:52.767Z,54.40
2019-05-02T20:15:27.014Z,54.00
2019-05-02T20:18:00.436Z,54.10
2019-05-02T20:20:46.742Z,54.40
2019-05-02T20:23:18.519Z,53.40
2019-05-02T20:25:46.216Z,53.20
2019-05-02T20:28:14.889Z,53.10
2019-05-02T20:30:43.643Z,53.20
2019-05-02T20:33:12.879Z,53.20
2019-05-02T20:35:42.128Z,53.60
2019-05-02T20:38:11.754Z,53.30
2019-05-02T20:40:42.640Z,53.30
2019-05-02T20:43:12.203Z,53.20
2019-05-02T20:45:40.891Z,53.10
2019-05-02T20:48:09.506Z,53.20
2019-05-02T20:50:38.042Z,52.70
2019-05-02T20:53:06.680Z,52.90
2019-05-02T20:55:36.833Z,53.00
2019-05-02T20:58:05.450Z,52.60
2019-05-02T21:00:34.354Z,52.80
2019-05-02T21:03:02.995Z,52.80
2019-05-02T21:05:33.279Z,52.80
2019-05-02T21:08:12.314Z,53.00
2019-05-02T21:10:45.378Z,52.60
2019-05-02T21:13:14.799Z,52.60
2019-05-02T21:15:43.527Z,52.70
2019-05-02T21:18:12.089Z,52.80
2019-05-02T21:20:41.821Z,52.70
2019-05-02T21:23:10.736Z,52.30
2019-05-02T21:25:39.383Z,52.10
2019-05-02T21:28:08.036Z,51.90
2019-05-02T21:30:36.922Z,52.20
2019-05-02T21:33:05.643Z,51.60
2019-05-02T21:35:34.182Z,51.60
2019-05-02T21:38:02.815Z,51.60
2019-05-02T21:40:32.744Z,51.10
2019-05-02T21:43:02.474Z,51.60
2019-05-02T21:45:31.672Z,51.30
2019-05-02T21:48:02.239Z,51.20
2019-05-02T21:50:42.739Z,50.80
2019-05-02T21:53:25.005Z,50.90
2019-05-02T21:56:02.690Z,51.00
2019-05-02T21:58:32.330Z,50.90
2019-05-02T22:01:05.966Z,50.40
2019-05-02T22:03:34.614Z,50.40
2019-05-02T22:06:03.806Z,50.70
2019-05-02T22:08:32.447Z,50.50
2019-05-02T22:11:01.048Z,50.20
2019-05-02T22:13:31.590Z,49.90
2019-05-02T22:16:02.201Z,50.20
2019-05-02T22:18:32.164Z,50.10
2019-05-02T22:21:01.701Z,50.00
2019-05-02T22:23:31.776Z,50.10
2019-05-02T22:26:02.117Z,49.60
2019-05-02T22:28:32.704Z,49.80
2019-05-02T22:31:03.238Z,49.60
2019-05-02T22:33:32.799Z,49.20
2019-05-02T22:36:01.985Z,49.70
2019-05-02T22:38:35.498Z,49.90
2019-05-02T22:41:04.090Z,50.50
2019-05-02T22:43:32.783Z,51.00
2019-05-02T22:46:02.962Z,51.60
2019-05-02T22:48:31.893Z,52.40
2019-05-02T22:51:00.666Z,52.90
2019-05-02T22:53:29.217Z,53.50
2019-05-02T22:55:57.780Z,53.70
2019-05-02T22:58:26.354Z,53.60
2019-05-02T23:00:54.966Z,54.30
2019-05-02T23:03:24.136Z,54.30
2019-05-02T23:05:53.141Z,54.10
2019-05-02T23:08:22.029Z,54.50
2019-05-02T23:10:51.954Z,54.70
2019-05-02T23:13:22.058Z,54.60
2019-05-02T23:15:52.169Z,54.80
2019-05-02T23:18:22.803Z,55.10
2019-05-02T23:20:52.607Z,54.90
2019-05-02T23:23:24.061Z,55.70
2019-05-02T23:26:05.046Z,54.80
2019-05-02T23:28:35.237Z,55.00
2019-05-02T23:31:03.848Z,54.40
2019-05-02T23:33:51.596Z,54.30
2019-05-02T23:36:20.339Z,54.70
2019-05-02T23:38:48.887Z,55.30
2019-05-02T23:41:17.473Z,55.60
2019-05-02T23:43:46.095Z,56.00
2019-05-02T23:46:14.644Z,56.50
2019-05-02T23:48:43.279Z,56.60
2019-05-02T23:51:12.115Z,56.50
2019-05-02T23:53:42.926Z,57.10
2019-05-02T23:56:13.161Z,57.40
2019-05-02T23:58:42.615Z,57.40
